sensor_id;sensor_type;location;lat;lon;timestamp;pressure;altitude;pressure_sealevel;temperature;humidity
7754;BME280;3921;42.266;23.122;2022-09-16T00:01:10;95161.66;;;23.14;56.46
7754;BME280;3921;42.266;23.122;2022-09-16T00:03:39;94704.06;;;20.04;56.54
7754;BME280;3921;42.266;23.122;2022-09-16T00:06:17;94973.69;;;21.88;56.55
7754;BME280;3921;42.266;23.122;2022-09-16T00:30:05;94697.69;;;19.97;56.92
7754;BME280;3921;42.266;23.122;2022-09-16T01:10:14;95204.50;;;22.98;57.79
7754;BME280;3921;42.266;23.122;2022-09-16T01:12:45;94770.13;;;20.08;58.08
7754;BME280;3921;42.266;23.122;2022-09-16T01:15:43;95209.25;;;22.90;58.23
7754;BME280;3921;42.266;23.122;2022-09-16T01:24:18;94761.09;;;19.87;58.01
7754;BME280;3921;42.266;23.122;2022-09-16T01:27:32;95012.44;;;21.36;58.53
7754;BME280;3921;42.266;23.122;2022-09-16T01:30:43;95231.00;;;22.83;58.73
7754;BME280;3921;42.266;23.122;2022-09-16T01:33:23;94732.63;;;19.63;58.77
7754;BME280;3921;42.266;23.122;2022-09-16T01:38:59;94738.94;;;19.56;58.84
7754;BME280;3921;42.266;23.122;2022-09-16T01:41:54;94786.81;;;19.82;58.98
7754;BME280;3921;42.266;23.122;2022-09-16T01:44:31;94741.63;;;19.53;58.94
7754;BME280;3921;42.266;23.122;2022-09-16T01:47:14;95274.81;;;22.78;59.17
7754;BME280;3921;42.266;23.122;2022-09-16T01:50:04;94765.16;;;19.58;58.75
7754;BME280;3921;42.266;23.122;2022-09-16T01:52:46;95249.19;;;22.78;58.95
7754;BME280;3921;42.266;23.122;2022-09-16T01:55:21;94857.16;;;20.18;58.97
7754;BME280;3921;42.266;23.122;2022-09-16T01:57:56;94971.53;;;20.90;58.92
7754;BME280;3921;42.266;23.122;2022-09-16T02:00:25;94741.41;;;19.57;58.86
7754;BME280;3921;42.266;23.122;2022-09-16T02:03:02;94800.72;;;19.93;58.86
7754;BME280;3921;42.266;23.122;2022-09-16T02:05:35;94784.75;;;19.89;59.00
7754;BME280;3921;42.266;23.122;2022-09-16T02:08:13;94813.72;;;20.04;59.19
7754;BME280;3921;42.266;23.122;2022-09-16T02:10:45;95072.41;;;21.61;59.07
7754;BME280;3921;42.266;23.122;2022-09-16T02:21:05;95106.31;;;22.10;59.46
7754;BME280;3921;42.266;23.122;2022-09-16T02:23:41;94839.88;;;20.39;59.59
7754;BME280;3921;42.266;23.122;2022-09-16T02:26:12;94771.75;;;19.94;60.09
7754;BME280;3921;42.266;23.122;2022-09-16T02:28:43;94843.34;;;20.54;59.65
7754;BME280;3921;42.266;23.122;2022-09-16T02:31:20;94915.28;;;20.76;59.98
7754;BME280;3921;42.266;23.122;2022-09-16T02:33:52;94697.50;;;19.52;59.84
7754;BME280;3921;42.266;23.122;2022-09-16T02:36:25;94741.25;;;19.92;59.98
7754;BME280;3921;42.266;23.122;2022-09-16T02:54:33;94783.28;;;20.01;60.81
7754;BME280;3921;42.266;23.122;2022-09-16T02:57:09;94823.59;;;20.10;60.63
7754;BME280;3921;42.266;23.122;2022-09-16T02:59:38;94732.88;;;19.58;60.51
7754;BME280;3921;42.266;23.122;2022-09-16T03:02:06;94706.03;;;19.35;60.74
7754;BME280;3921;42.266;23.122;2022-09-16T03:04:47;94770.94;;;19.77;60.62
7754;BME280;3921;42.266;23.122;2022-09-16T03:07:21;94704.72;;;19.28;60.39
7754;BME280;3921;42.266;23.122;2022-09-16T03:09:53;94795.84;;;19.72;60.88
7754;BME280;3921;42.266;23.122;2022-09-16T03:12:49;94849.69;;;20.15;60.98
7754;BME280;3921;42.266;23.122;2022-09-16T03:15:49;94862.09;;;20.21;61.14
7754;BME280;3921;42.266;23.122;2022-09-16T03:18:53;94656.78;;;19.03;61.15
7754;BME280;3921;42.266;23.122;2022-09-16T03:21:29;94649.69;;;18.77;61.89
7754;BME280;3921;42.266;23.122;2022-09-16T03:24:08;94748.19;;;19.41;61.55
7754;BME280;3921;42.266;23.122;2022-09-16T03:26:45;95195.53;;;22.16;62.05
7754;BME280;3921;42.266;23.122;2022-09-16T03:29:21;94741.34;;;19.26;61.71
7754;BME280;3921;42.266;23.122;2022-09-16T03:31:58;95223.50;;;22.19;61.71
7754;BME280;3921;42.266;23.122;2022-09-16T03:37:28;95210.06;;;22.16;61.85
7754;BME280;3921;42.266;23.122;2022-09-16T03:40:03;94732.19;;;19.06;61.69
7754;BME280;3921;42.266;23.122;2022-09-16T03:42:41;94698.38;;;18.87;61.35
7754;BME280;3921;42.266;23.122;2022-09-16T03:45:43;94751.03;;;19.19;61.56
7754;BME280;3921;42.266;23.122;2022-09-16T03:48:16;94709.03;;;19.10;61.66
7754;BME280;3921;42.266;23.122;2022-09-16T03:50:55;94734.84;;;19.20;61.73
7754;BME280;3921;42.266;23.122;2022-09-16T03:53:25;94770.84;;;19.30;61.58
7754;BME280;3921;42.266;23.122;2022-09-16T04:04:22;94762.16;;;19.34;61.65
7754;BME280;3921;42.266;23.122;2022-09-16T04:06:49;94763.63;;;19.38;61.67
7754;BME280;3921;42.266;23.122;2022-09-16T04:09:16;94702.59;;;19.03;61.49
7754;BME280;3921;42.266;23.122;2022-09-16T04:11:44;94644.13;;;18.69;61.42
7754;BME280;3921;42.266;23.122;2022-09-16T04:14:11;94774.03;;;19.51;61.48
7754;BME280;3921;42.266;23.122;2022-09-16T04:16:41;94797.41;;;19.59;61.38
7754;BME280;3921;42.266;23.122;2022-09-16T04:19:11;95102.94;;;21.64;61.63
7754;BME280;3921;42.266;23.122;2022-09-16T04:21:41;94584.16;;;18.47;61.10
7754;BME280;3921;42.266;23.122;2022-09-16T04:29:21;94688.31;;;19.01;61.33
7754;BME280;3921;42.266;23.122;2022-09-16T04:31:48;94625.72;;;18.64;61.46
7754;BME280;3921;42.266;23.122;2022-09-16T04:34:19;94750.69;;;19.25;61.14
7754;BME280;3921;42.266;23.122;2022-09-16T21:27:02;94468.94;;;19.24;71.91
7754;BME280;3921;42.266;23.122;2022-09-16T23:43:03;94345.78;;;19.25;62.62
7754;BME280;3921;42.266;23.122;2022-09-16T23:50:47;94297.56;;;18.94;61.72
7754;BME280;3921;42.266;23.122;2022-09-16T23:53:24;94801.00;;;22.24;61.93
